Airfield :
LOGIN :

Register | Disclaimer

   EN    FR    IT 

 










Legend :    VFR   Marginal VFR   IFR   Intensive IFR   Very Intensive IFR
Visi :
Ceiling :
>= 8 km
>= 3000ft
5 to 8 km
1000 to 3000 ft
1500m to 5 km
500 to 1000 ft
800 to 1500m
200 to 500 ft
< 800m
< 200 ft
Symbols :   Thunderstorms  Fog  Heavy snow  Heavy precipitations  Wind > 20 kt
SIGMETs :     Misc.  Thunderstorms  Icing  Turbulence  Mountain Waves  Volcanic Ashes






- Airport Elevation : 219 ft
- IATA code : DNR


LFRD - Dinard

CURRENT METAR :
  • 150700Z AUTO 20011KT CAVOK 10/09 Q1005 BECMG 24015G25KT

EXPIRED METARs :
  • 150630Z AUTO 20010KT CAVOK 10/09 Q1005 BECMG 24015G25KT
  • 150600Z AUTO 20009KT CAVOK 10/09 Q1005 NOSIG
  • 150530Z AUTO 21009KT CAVOK 10/09 Q1005 NOSIG
  • 150500Z AUTO 21010KT CAVOK 10/10 Q1005 TEMPO 3000 BR BKN005
  • 150430Z AUTO 20010KT CAVOK 10/10 Q1005 TEMPO 3000 BR BKN005

TAF TAF LFRD
Valid from the 15 at 06:00 until the 16 at 06:00 UTC


150500Z 1506/1606 22010KT 9999 SCT020
BECMG 1508/1510 24015G25KT
TEMPO 1509/1515 4000 SHRA BKN015TCU
BECMG 1515/1517 20010KT
PROB30
TEMPO 1515/1522 5000 SHRA
BECMG 1522/1524 20015G25KT 5000 RA BKN015
TEMPO 1522/1606 3000 RA BKN007
TEMPO 1603/1606 21020G35KT
ATIS : +33 2 99 16 81 50



MET'MAP, your aeronautical weather chart ! - Copyright ORBIFLY December 2007 - Disclaimer

ORBIFLY MET'MAP TEAM :

Programming & Development : Alexandra Zaïnal
Concept & Development : Baudouin d'Aumeries
Co-Development & Prog : Marc-Olivier Méhu
Technical & hardware support : Manuel Goepfert

Contact : metmap@orbifly.com




SOURCES & CREDITS :

   NOAA